createdAt,value
2022-08-01T03:47:08.025Z,3.55
2022-08-01T03:49:39.090Z,4.82
2022-08-01T03:52:08.670Z,3.75
2022-08-01T03:54:39.415Z,3.28
2022-08-01T03:57:07.811Z,4.22
2022-08-01T03:59:47.907Z,5.70
2022-08-01T04:02:15.848Z,4.53
2022-08-01T04:04:42.853Z,4.35
2022-08-01T04:07:30.571Z,4.25
2022-08-01T04:09:57.848Z,3.78
2022-08-01T04:12:25.079Z,3.72
2022-08-01T04:14:52.179Z,4.72
2022-08-01T04:17:19.257Z,4.95
2022-08-01T04:19:46.686Z,6.72
2022-08-01T04:22:16.089Z,4.50
2022-08-01T04:24:54.630Z,5.30
2022-08-01T04:27:50.944Z,3.70
2022-08-01T04:30:21.281Z,3.38
2022-08-01T04:32:49.032Z,5.32
2022-08-01T04:35:22.853Z,5.85
2022-08-01T04:38:05.918Z,5.07
2022-08-01T04:40:36.836Z,5.78
2022-08-01T04:43:04.380Z,6.20
2022-08-01T04:45:33.725Z,4.40
2022-08-01T04:48:01.083Z,4.30
2022-08-01T04:50:28.559Z,5.10
2022-08-01T04:52:55.532Z,4.47
2022-08-01T04:55:22.287Z,3.95
2022-08-01T04:57:49.173Z,4.25
2022-08-01T05:00:17.563Z,6.53
2022-08-01T05:02:44.556Z,4.43
2022-08-01T05:05:11.483Z,9.82
2022-08-01T05:07:44.318Z,7.13
2022-08-01T05:10:13.167Z,5.13
2022-08-01T05:12:40.048Z,7.22
2022-08-01T05:15:11.708Z,8.13
2022-08-01T05:17:45.156Z,5.30
2022-08-01T05:20:12.714Z,7.90
2022-08-01T05:22:39.846Z,10.43
2022-08-01T05:25:07.157Z,5.70
2022-08-01T05:27:38.695Z,10.45
2022-08-01T05:30:09.248Z,10.20
2022-08-01T05:32:36.694Z,6.80
2022-08-01T05:35:04.136Z,8.10
2022-08-01T05:37:31.006Z,7.95
2022-08-01T05:39:57.751Z,7.15
2022-08-01T05:42:24.544Z,8.93
2022-08-01T05:44:51.850Z,6.43
2022-08-01T05:47:19.156Z,6.90
2022-08-01T05:49:46.869Z,4.60
2022-08-01T05:52:14.048Z,5.28
2022-08-01T05:54:41.051Z,7.43
2022-08-01T05:57:08.012Z,6.15
2022-08-01T05:59:34.849Z,4.90
2022-08-01T06:02:02.136Z,4.80
2022-08-01T06:04:29.109Z,4.78
2022-08-01T06:06:55.879Z,5.80
2022-08-01T06:09:22.660Z,5.57
2022-08-01T06:11:49.492Z,4.53
2022-08-01T06:14:16.256Z,4.30
2022-08-01T06:16:43.008Z,8.25
2022-08-01T06:19:09.858Z,5.97
2022-08-01T06:21:36.794Z,4.85
2022-08-01T06:24:03.823Z,4.63
2022-08-01T06:26:30.639Z,7.22
2022-08-01T06:28:57.378Z,4.80
2022-08-01T06:31:24.112Z,6.25
2022-08-01T06:33:50.865Z,5.32
2022-08-01T06:36:17.607Z,4.43
2022-08-01T06:38:44.334Z,5.55
2022-08-01T06:41:11.075Z,5.40
2022-08-01T06:43:37.843Z,4.65
2022-08-01T06:46:05.389Z,4.65
2022-08-01T06:48:32.406Z,8.02
2022-08-01T06:51:14.509Z,6.40
2022-08-01T06:53:41.383Z,4.82
2022-08-01T06:56:10.815Z,4.70
2022-08-01T06:58:37.666Z,3.72
2022-08-01T07:01:07.110Z,5.88
2022-08-01T07:03:52.742Z,5.15
2022-08-01T07:06:26.348Z,3.50
2022-08-01T07:08:53.929Z,4.82
2022-08-01T07:11:22.564Z,4.30
2022-08-01T07:13:49.527Z,5.03
2022-08-01T07:16:17.272Z,4.20
2022-08-01T07:18:44.405Z,4.93
2022-08-01T07:21:39.303Z,5.03
2022-08-01T07:23:58.410Z,5.72
2022-08-01T07:26:27.603Z,4.07
2022-08-01T07:28:54.674Z,4.53
2022-08-01T07:31:21.480Z,3.85
2022-08-01T07:33:49.185Z,3.92
2022-08-01T07:36:17.443Z,5.53
2022-08-01T07:38:45.003Z,3.55
2022-08-01T07:41:12.388Z,4.97
2022-08-01T07:43:39.339Z,6.10
2022-08-01T07:46:06.630Z,4.35
2022-08-01T07:48:34.422Z,3.95
2022-08-01T07:51:01.249Z,7.22
2022-08-01T07:53:28.074Z,5.40
2022-08-01T07:55:54.892Z,6.57
2022-08-01T07:58:21.856Z,3.75
2022-08-01T08:00:48.733Z,5.28
2022-08-01T08:03:15.540Z,3.83
2022-08-01T08:05:58.949Z,5.10
2022-08-01T08:08:27.447Z,3.38
2022-08-01T08:10:54.366Z,4.25
2022-08-01T08:13:21.167Z,4.22
2022-08-01T08:15:48.784Z,4.57
2022-08-01T08:18:16.478Z,6.20
2022-08-01T08:20:43.612Z,3.97
2022-08-01T08:23:42.909Z,3.63
2022-08-01T08:26:11.984Z,5.07
2022-08-01T08:28:40.312Z,4.18
2022-08-01T08:31:25.644Z,4.53
2022-08-01T08:33:55.199Z,3.38
2022-08-01T08:36:22.047Z,3.42
2022-08-01T08:39:00.157Z,4.82
2022-08-01T08:41:27.146Z,5.93
2022-08-01T08:44:10.226Z,6.43
2022-08-01T08:46:57.094Z,5.28
2022-08-01T08:49:36.072Z,3.28
2022-08-01T08:52:04.930Z,3.45
2022-08-01T08:54:33.421Z,4.05
2022-08-01T08:57:02.467Z,3.92
2022-08-01T08:59:29.704Z,4.63
2022-08-01T09:01:57.446Z,4.55
2022-08-01T09:04:26.200Z,3.90
2022-08-01T09:06:54.615Z,5.25
2022-08-01T09:09:21.475Z,4.38
2022-08-01T09:11:56.739Z,4.05
2022-08-01T09:14:26.669Z,2.95
2022-08-01T09:17:08.624Z,3.75
2022-08-01T09:19:40.587Z,3.53
2022-08-01T09:22:10.813Z,3.15
2022-08-01T09:24:38.183Z,3.05
2022-08-01T09:27:22.783Z,2.90
2022-08-01T09:30:00.575Z,3.20
2022-08-01T09:32:35.825Z,2.45
2022-08-01T09:35:30.262Z,2.63
2022-08-01T09:38:23.458Z,3.53
2022-08-01T09:40:55.783Z,2.83
2022-08-01T09:43:27.587Z,2.33
2022-08-01T09:45:55.300Z,3.13
2022-08-01T09:48:28.305Z,3.00
2022-08-01T09:51:04.382Z,3.95
2022-08-01T09:53:51.792Z,2.53
2022-08-01T09:56:21.592Z,3.80
2022-08-01T09:59:02.158Z,3.42
2022-08-01T10:01:51.406Z,3.30
2022-08-01T10:04:22.403Z,3.15
2022-08-01T10:06:55.240Z,2.63
2022-08-01T10:09:39.662Z,2.30
2022-08-01T10:12:08.700Z,2.40
2022-08-01T10:14:38.727Z,2.10
2022-08-01T10:17:19.509Z,3.67
2022-08-01T10:19:47.767Z,3.00
2022-08-01T10:22:17.616Z,3.20
2022-08-01T10:24:48.139Z,2.40
2022-08-01T10:27:24.533Z,2.53
2022-08-01T10:30:15.477Z,2.55
2022-08-01T10:32:50.881Z,2.80
2022-08-01T10:35:45.661Z,2.80
2022-08-01T10:38:10.629Z,2.95
2022-08-01T10:40:38.659Z,2.03
2022-08-01T10:43:07.531Z,2.35
2022-08-01T10:45:34.860Z,2.10
2022-08-01T10:48:24.720Z,3.08
2022-08-01T10:50:54.985Z,2.38
2022-08-01T10:53:30.879Z,3.17
2022-08-01T10:55:59.226Z,3.33
2022-08-01T10:58:42.076Z,3.22
2022-08-01T11:01:26.694Z,3.10
2022-08-01T11:03:59.924Z,3.83
2022-08-01T11:06:34.600Z,2.67
2022-08-01T11:09:36.395Z,2.30
2022-08-01T11:12:12.837Z,4.80
2022-08-01T11:14:59.575Z,2.65
2022-08-01T11:17:49.113Z,9.48
2022-08-01T11:20:17.529Z,3.45
2022-08-01T11:23:05.066Z,4.80
2022-08-01T11:26:04.684Z,5.13
2022-08-01T11:28:33.238Z,4.20
2022-08-01T11:31:11.511Z,5.72
2022-08-01T11:33:42.295Z,4.72
2022-08-01T11:36:14.195Z,1.80
2022-08-01T11:38:43.506Z,2.70
2022-08-01T11:41:38.059Z,2.10
2022-08-01T11:44:49.239Z,4.65
2022-08-01T11:47:16.869Z,2.63
2022-08-01T11:49:50.497Z,2.38
2022-08-01T11:52:29.838Z,3.20
2022-08-01T11:55:10.514Z,2.67
2022-08-01T11:57:39.349Z,2.63
2022-08-01T12:00:15.463Z,1.35
2022-08-01T12:02:45.763Z,2.13
2022-08-01T12:05:16.040Z,2.00
2022-08-01T12:07:44.708Z,2.45
2022-08-01T12:10:11.520Z,1.80
2022-08-01T12:12:46.222Z,2.03
2022-08-01T12:15:14.277Z,1.05
2022-08-01T12:17:57.412Z,1.67
2022-08-01T12:20:30.029Z,3.28
2022-08-01T12:22:59.935Z,1.73
2022-08-01T12:25:26.792Z,1.90
2022-08-01T12:27:56.483Z,2.55
2022-08-01T12:30:25.271Z,2.42
2022-08-01T12:32:53.939Z,1.38
2022-08-01T12:35:23.973Z,2.47
2022-08-01T12:38:02.133Z,1.67
2022-08-01T12:40:31.211Z,4.10
2022-08-01T12:43:00.713Z,1.95
2022-08-01T12:45:29.950Z,2.78
2022-08-01T12:47:59.600Z,2.45
2022-08-01T12:50:30.670Z,2.05
2022-08-01T12:52:58.123Z,2.33
2022-08-01T12:55:34.143Z,1.70
2022-08-01T12:58:20.468Z,2.22
2022-08-01T13:00:49.602Z,2.53
2022-08-01T13:03:22.738Z,2.20
2022-08-01T13:05:52.690Z,1.23
2022-08-01T13:08:22.791Z,2.08
2022-08-01T13:10:50.701Z,1.60
2022-08-01T13:13:27.978Z,2.15
2022-08-01T13:16:06.343Z,1.65
2022-08-01T13:18:35.026Z,2.45
2022-08-01T13:21:34.570Z,1.75
2022-08-01T13:24:25.244Z,2.42
2022-08-01T13:27:01.287Z,1.70
2022-08-01T13:29:35.856Z,1.92
2022-08-01T13:32:30.067Z,2.05
2022-08-01T13:35:10.116Z,4.43
2022-08-01T13:37:38.808Z,2.28
2022-08-01T13:40:10.154Z,2.35
2022-08-01T13:42:37.676Z,3.17
2022-08-01T13:45:14.720Z,4.95
2022-08-01T13:48:03.536Z,3.97
2022-08-01T13:50:32.600Z,3.58
2022-08-01T13:52:59.448Z,3.03
2022-08-01T13:55:29.912Z,2.65
2022-08-01T13:58:00.831Z,2.47
2022-08-01T14:00:27.629Z,2.53
2022-08-01T14:02:54.465Z,2.83
2022-08-01T14:05:21.254Z,2.78
2022-08-01T14:07:48.578Z,2.03
2022-08-01T14:10:19.972Z,2.30
2022-08-01T14:12:48.425Z,1.63
2022-08-01T14:15:18.233Z,0.98
2022-08-01T14:18:02.298Z,1.35
2022-08-01T14:20:29.386Z,1.05
2022-08-01T14:22:56.233Z,1.42
2022-08-01T14:25:59.182Z,1.52
2022-08-01T14:28:11.325Z,2.08
2022-08-01T14:30:38.529Z,2.30
2022-08-01T14:33:05.360Z,2.15
2022-08-01T14:36:01.682Z,2.47
2022-08-01T14:38:29.264Z,1.50
2022-08-01T14:40:58.989Z,4.07
2022-08-01T14:43:32.252Z,3.03
2022-08-01T14:46:01.058Z,2.17
2022-08-01T14:48:27.999Z,1.88
2022-08-01T14:50:57.121Z,1.65
2022-08-01T14:53:23.912Z,2.30
2022-08-01T14:55:50.787Z,3.35
2022-08-01T14:58:17.600Z,5.07
2022-08-01T15:00:44.452Z,2.03
2022-08-01T15:03:11.307Z,5.25
2022-08-01T15:05:38.215Z,1.58
2022-08-01T15:08:07.119Z,2.55
2022-08-01T15:10:34.047Z,2.67
2022-08-01T15:13:02.488Z,2.95
2022-08-01T15:15:29.514Z,3.10
2022-08-01T15:17:56.605Z,4.28
2022-08-01T15:20:23.721Z,2.15
2022-08-01T15:22:50.552Z,2.03
2022-08-01T15:25:17.378Z,4.50
2022-08-01T15:27:44.232Z,2.47
2022-08-01T15:30:11.389Z,2.45
2022-08-01T15:32:39.256Z,3.65
2022-08-01T15:35:07.220Z,3.58
2022-08-01T15:37:34.036Z,2.78
2022-08-01T15:40:03.881Z,5.10
2022-08-01T15:42:30.992Z,4.10
2022-08-01T15:44:57.748Z,3.25
2022-08-01T15:47:25.023Z,2.22
2022-08-01T15:49:52.709Z,2.40
2022-08-01T15:52:21.923Z,2.63
2022-08-01T15:54:49.973Z,2.88
2022-08-01T15:57:16.968Z,2.78
2022-08-01T15:59:43.765Z,1.52
2022-08-01T16:02:11.168Z,3.45
2022-08-01T16:04:38.721Z,3.05
2022-08-01T16:07:06.585Z,4.25
2022-08-01T16:09:33.413Z,2.42
2022-08-01T16:12:00.789Z,2.35
2022-08-01T16:14:27.545Z,2.75
2022-08-01T16:16:54.368Z,3.67
2022-08-01T16:19:21.822Z,5.20
2022-08-01T16:21:48.710Z,4.35
2022-08-01T16:24:15.863Z,1.83
2022-08-01T16:26:43.168Z,3.85
2022-08-01T16:29:10.026Z,2.92
2022-08-01T16:31:50.922Z,3.95
2022-08-01T16:34:23.740Z,3.03
2022-08-01T16:36:52.663Z,5.07
2022-08-01T16:39:23.076Z,3.28
2022-08-01T16:41:55.062Z,2.75
2022-08-01T16:44:28.658Z,3.72
2022-08-01T16:47:01.475Z,2.22
2022-08-01T16:49:28.328Z,3.50
2022-08-01T16:51:55.131Z,3.63
2022-08-01T16:54:25.499Z,5.32
2022-08-01T16:56:53.422Z,5.93
2022-08-01T16:59:20.298Z,2.63
2022-08-01T17:01:59.739Z,2.47
2022-08-01T17:04:30.201Z,3.33
2022-08-01T17:06:57.824Z,4.32
2022-08-01T17:09:24.658Z,3.90
2022-08-01T17:11:51.925Z,3.92
2022-08-01T17:14:18.798Z,3.40
2022-08-01T17:16:45.623Z,3.38
2022-08-01T17:19:12.514Z,5.70
2022-08-01T17:21:42.179Z,3.80
2022-08-01T17:24:09.421Z,4.95
2022-08-01T17:26:36.287Z,3.88
2022-08-01T17:29:03.631Z,3.50
2022-08-01T17:31:30.384Z,5.25
2022-08-01T17:33:57.248Z,3.78
2022-08-01T17:36:24.826Z,3.70
2022-08-01T17:38:51.583Z,3.80
2022-08-01T17:41:18.332Z,4.78
2022-08-01T17:43:45.018Z,3.65
2022-08-01T17:46:11.731Z,4.57
2022-08-01T17:48:38.599Z,3.60
2022-08-01T17:51:06.363Z,3.70
2022-08-01T17:53:33.581Z,4.40
2022-08-01T17:56:02.264Z,6.47
2022-08-01T17:58:45.976Z,3.72
2022-08-01T18:01:17.519Z,3.85
2022-08-01T18:03:45.453Z,3.85
2022-08-01T18:06:13.833Z,3.88
2022-08-01T18:08:42.366Z,4.15
2022-08-01T18:11:09.747Z,3.60
2022-08-01T18:13:36.804Z,3.75
2022-08-01T18:16:08.915Z,4.75
2022-08-01T18:18:36.006Z,4.43
2022-08-01T18:21:03.007Z,2.88
2022-08-01T18:23:29.974Z,5.05
2022-08-01T18:25:56.741Z,4.25
2022-08-01T18:28:32.708Z,5.75
2022-08-01T18:31:02.172Z,8.48
2022-08-01T18:33:28.944Z,5.80
2022-08-01T18:35:57.687Z,7.38
2022-08-01T18:38:35.200Z,5.55
2022-08-01T18:41:05.791Z,3.30
2022-08-01T18:43:32.580Z,4.57
2022-08-01T18:46:01.173Z,4.70
2022-08-01T18:48:27.907Z,4.57
2022-08-01T18:50:54.671Z,3.72
2022-08-01T18:53:23.804Z,4.35
2022-08-01T18:55:50.842Z,3.55
2022-08-01T18:58:17.610Z,3.72
2022-08-01T19:00:44.669Z,3.50
2022-08-01T19:03:13.088Z,4.85
2022-08-01T19:05:39.883Z,3.40
2022-08-01T19:08:08.312Z,4.00
2022-08-01T19:10:36.371Z,4.35
2022-08-01T19:13:03.300Z,4.25
2022-08-01T19:15:30.122Z,3.58
2022-08-01T19:17:56.935Z,4.35
2022-08-01T19:20:23.721Z,2.83
2022-08-01T19:22:50.471Z,3.55
2022-08-01T19:25:17.499Z,4.07
2022-08-01T19:27:48.078Z,2.90
2022-08-01T19:30:15.954Z,3.15
2022-08-01T19:32:44.352Z,2.97
2022-08-01T19:35:13.766Z,3.25
2022-08-01T19:37:45.824Z,3.42
2022-08-01T19:40:27.076Z,5.18
2022-08-01T19:42:57.060Z,4.05
2022-08-01T19:45:24.772Z,2.45
2022-08-01T19:47:56.789Z,4.80
2022-08-01T19:50:28.306Z,3.13
2022-08-01T19:53:02.146Z,2.60
2022-08-01T19:55:30.862Z,2.60
2022-08-01T20:00:49.039Z,2.28
2022-08-01T20:03:19.023Z,2.50
2022-08-01T20:05:45.805Z,2.72
2022-08-01T20:08:13.049Z,2.88
2022-08-01T20:10:41.022Z,2.28
2022-08-01T20:13:10.829Z,3.25
2022-08-01T20:15:38.794Z,2.40
2022-08-01T20:18:07.252Z,2.60
2022-08-01T20:20:36.721Z,2.38
2022-08-01T20:23:06.002Z,2.42
2022-08-01T20:25:39.474Z,6.85
2022-08-01T20:28:10.700Z,1.80
2022-08-01T20:30:38.898Z,1.50
2022-08-01T20:33:11.257Z,1.83
2022-08-01T20:35:39.007Z,3.22
2022-08-01T20:38:23.161Z,1.10
2022-08-01T20:40:56.505Z,2.28
2022-08-01T20:43:23.530Z,2.20
2022-08-01T20:45:51.360Z,2.20
2022-08-01T20:48:18.530Z,2.38
2022-08-01T20:51:05.122Z,2.45
2022-08-01T20:53:36.672Z,2.20
2022-08-01T20:56:39.569Z,2.25
2022-08-01T20:59:39.918Z,2.25
2022-08-01T21:02:21.845Z,2.30
2022-08-01T21:05:12.445Z,2.30
2022-08-01T21:07:46.901Z,2.08
2022-08-01T21:10:16.686Z,3.63
2022-08-01T21:12:51.430Z,2.08
2022-08-01T21:15:34.421Z,2.60
2022-08-01T21:18:04.048Z,3.25
2022-08-01T21:20:35.182Z,2.42
2022-08-01T21:23:08.986Z,1.77
2022-08-01T21:25:36.170Z,2.47
2022-08-01T21:28:04.646Z,1.90
2022-08-01T21:30:34.810Z,2.17
2022-08-01T21:33:04.701Z,2.13
2022-08-01T21:35:32.883Z,2.28
2022-08-01T21:38:01.851Z,1.55
2022-08-01T21:40:32.959Z,2.08
2022-08-01T21:43:01.835Z,2.28
2022-08-01T21:45:29.595Z,2.05
2022-08-01T21:47:58.102Z,1.58
2022-08-01T21:50:25.090Z,2.30
2022-08-01T21:53:00.715Z,2.67
2022-08-01T21:55:51.784Z,2.40
2022-08-01T21:58:35.454Z,2.10
2022-08-01T22:01:13.550Z,2.15
2022-08-01T22:03:46.778Z,2.63
2022-08-01T22:06:15.992Z,1.83
2022-08-01T22:08:53.342Z,2.30
2022-08-01T22:11:22.631Z,2.25
2022-08-01T22:13:55.018Z,2.13
2022-08-01T22:16:22.003Z,2.72
2022-08-01T22:18:50.085Z,2.00
2022-08-01T22:21:17.429Z,1.90
2022-08-01T22:23:44.598Z,2.60
2022-08-01T22:26:12.166Z,2.50
2022-08-01T22:28:40.142Z,2.78
2022-08-01T22:31:07.349Z,2.80
2022-08-01T22:33:39.071Z,2.10
2022-08-01T22:36:06.963Z,2.05
2022-08-01T22:38:34.352Z,2.75
2022-08-01T22:41:04.638Z,2.40
2022-08-01T22:43:34.139Z,3.78
2022-08-01T22:46:16.040Z,3.55
2022-08-01T22:48:56.532Z,3.25
2022-08-01T22:51:23.282Z,2.70
2022-08-01T22:54:09.157Z,3.65
2022-08-01T22:56:43.922Z,4.68
2022-08-01T22:59:26.261Z,3.50
